createdAt,value
2018-04-02T00:02:17.972Z,17.17
2018-04-02T00:04:45.589Z,16.55
2018-04-02T00:07:13.406Z,19.50
2018-04-02T00:09:41.173Z,24.73
2018-04-02T00:12:08.790Z,24.13
2018-04-02T00:14:36.403Z,14.80
2018-04-02T00:17:04.257Z,21.70
2018-04-02T00:19:32.632Z,26.17
2018-04-02T00:22:01.020Z,14.43
2018-04-02T00:24:30.010Z,16.37
2018-04-02T00:26:57.976Z,19.50
2018-04-02T00:29:25.636Z,16.30
2018-04-02T00:31:55.112Z,24.17
2018-04-02T00:34:22.730Z,20.57
2018-04-02T00:36:50.353Z,20.30
2018-04-02T00:39:18.785Z,16.40
2018-04-02T00:41:46.461Z,18.67
2018-04-02T00:44:14.144Z,19.67
2018-04-02T00:46:41.810Z,19.73
2018-04-02T00:49:09.434Z,17.98
2018-04-02T00:51:37.049Z,15.85
2018-04-02T00:54:04.702Z,15.37
2018-04-02T00:56:32.313Z,13.25
2018-04-02T00:58:59.977Z,16.57
2018-04-02T01:01:27.607Z,18.87
2018-04-02T01:03:55.264Z,14.20
2018-04-02T01:06:22.885Z,17.17
2018-04-02T01:08:50.540Z,12.20
2018-04-02T01:11:18.160Z,17.55
2018-04-02T01:13:46.010Z,17.20
2018-04-02T01:16:13.633Z,19.33
2018-04-02T01:18:41.288Z,13.77
2018-04-02T01:21:09.162Z,20.50
2018-04-02T01:23:37.545Z,16.62
2018-04-02T01:26:05.973Z,15.27
2018-04-02T01:28:33.701Z,15.73
2018-04-02T01:31:01.365Z,13.33
2018-04-02T01:33:29.780Z,16.20
2018-04-02T01:35:57.560Z,16.12
2018-04-02T01:38:25.209Z,13.43
2018-04-02T01:40:52.865Z,17.13
2018-04-02T01:43:20.517Z,15.90
2018-04-02T01:45:48.221Z,16.80
2018-04-02T01:48:16.673Z,13.77
2018-04-02T01:50:44.923Z,12.43
2018-04-02T01:53:12.541Z,12.02
2018-04-02T01:55:40.961Z,14.02
2018-04-02T01:58:08.665Z,15.77
2018-04-02T02:00:36.315Z,12.32
2018-04-02T02:03:03.984Z,15.02
2018-04-02T02:05:31.634Z,13.75
2018-04-02T02:07:59.306Z,15.82
2018-04-02T02:10:27.165Z,17.33
2018-04-02T02:12:54.926Z,14.57
2018-04-02T02:15:22.548Z,14.98
2018-04-02T02:17:50.161Z,15.20
2018-04-02T02:20:17.824Z,10.95
2018-04-02T02:22:45.613Z,13.00
2018-04-02T02:25:14.028Z,12.50
2018-04-02T02:27:41.644Z,13.63
2018-04-02T02:30:09.313Z,16.27
2018-04-02T02:32:36.933Z,16.27
2018-04-02T02:35:04.648Z,15.55
2018-04-02T02:37:32.266Z,16.57
2018-04-02T02:39:59.935Z,15.15
2018-04-02T02:42:27.545Z,15.43
2018-04-02T02:44:55.160Z,15.73
2018-04-02T02:47:23.620Z,16.80
2018-04-02T02:49:51.288Z,16.25
2018-04-02T02:52:18.961Z,16.90
2018-04-02T02:54:46.603Z,13.20
2018-04-02T02:57:14.297Z,16.17
2018-04-02T02:59:41.922Z,23.42
2018-04-02T03:02:09.598Z,17.40
2018-04-02T03:04:38.166Z,15.35
2018-04-02T03:07:05.927Z,17.17
2018-04-02T03:09:33.590Z,13.98
2018-04-02T03:12:01.212Z,12.37
2018-04-02T03:14:28.866Z,13.43
2018-04-02T03:16:56.521Z,20.43
2018-04-02T03:19:24.184Z,13.77
2018-04-02T03:21:51.805Z,18.70
2018-04-02T03:24:19.653Z,12.75
2018-04-02T03:26:47.269Z,17.23
2018-04-02T03:29:15.512Z,17.20
2018-04-02T03:31:43.897Z,20.20
2018-04-02T03:34:12.316Z,17.63
2018-04-02T03:36:40.006Z,17.27
2018-04-02T03:39:07.675Z,22.13
2018-04-02T03:41:35.324Z,14.82
2018-04-02T03:44:02.990Z,14.50
2018-04-02T03:46:30.624Z,14.98
2018-04-02T03:48:58.286Z,15.10
2018-04-02T03:51:25.938Z,17.60
2018-04-02T03:53:53.594Z,24.57
2018-04-02T03:56:21.213Z,18.00
2018-04-02T03:58:49.656Z,19.35
2018-04-02T04:01:17.319Z,16.63
2018-04-02T04:03:46.812Z,15.74
2018-04-02T04:06:14.448Z,16.62
2018-04-02T04:08:42.112Z,19.20
2018-04-02T04:11:09.740Z,20.70
2018-04-02T04:13:37.357Z,20.17
2018-04-02T04:16:05.022Z,15.52
2018-04-02T04:18:32.702Z,22.13
2018-04-02T04:21:00.346Z,17.90
2018-04-02T04:23:28.020Z,20.37
2018-04-02T04:25:55.679Z,19.93
2018-04-02T04:28:23.324Z,16.08
2018-04-02T04:30:50.956Z,27.97
2018-04-02T04:33:18.618Z,22.15
2018-04-02T04:35:46.241Z,21.60
2018-04-02T04:38:14.686Z,16.25
2018-04-02T04:40:42.345Z,20.13
2018-04-02T04:43:10.020Z,16.77
2018-04-02T04:45:37.636Z,18.40
2018-04-02T04:48:05.313Z,17.00
2018-04-02T04:50:32.933Z,18.30
2018-04-02T04:53:01.370Z,18.60
2018-04-02T04:55:29.029Z,29.03
2018-04-02T04:57:56.659Z,24.17
2018-04-02T05:00:24.285Z,18.37
2018-04-02T05:02:52.729Z,21.03
2018-04-02T05:05:20.469Z,21.48
2018-04-02T05:07:48.136Z,18.20
2018-04-02T05:10:16.308Z,18.87
2018-04-02T05:12:43.934Z,16.43
2018-04-02T05:15:11.607Z,20.00
2018-04-02T05:17:39.282Z,23.57
2018-04-02T05:20:07.713Z,20.07
2018-04-02T05:22:35.583Z,17.42
2018-04-02T05:25:03.207Z,21.10
2018-04-02T05:27:31.453Z,16.73
2018-04-02T05:29:59.092Z,18.80
2018-04-02T05:32:26.750Z,21.40
2018-04-02T05:34:54.850Z,17.60
2018-04-02T05:37:22.510Z,15.27
2018-04-02T05:39:50.313Z,15.43
2018-04-02T05:42:17.976Z,16.70
2018-04-02T05:44:45.774Z,15.67
2018-04-02T05:47:14.137Z,32.15
2018-04-02T05:49:41.792Z,17.87
2018-04-02T05:52:09.419Z,15.53
2018-04-02T05:54:37.094Z,20.67
2018-04-02T05:57:04.717Z,16.83
2018-04-02T05:59:32.381Z,20.13
2018-04-02T06:02:00.673Z,17.30
2018-04-02T06:04:28.295Z,21.30
2018-04-02T06:06:56.524Z,19.97
2018-04-02T06:09:24.215Z,14.23
2018-04-02T06:11:51.888Z,19.65
2018-04-02T06:14:19.544Z,18.07
2018-04-02T06:16:47.341Z,17.33
2018-04-02T06:19:15.203Z,15.17
2018-04-02T06:21:44.189Z,15.30
2018-04-02T06:24:13.224Z,15.48
2018-04-02T06:26:41.826Z,13.75
2018-04-02T06:29:21.161Z,19.95
2018-04-02T06:31:48.817Z,12.40
2018-04-02T06:34:16.438Z,14.33
2018-04-02T06:36:44.847Z,17.30
2018-04-02T06:39:13.278Z,15.50
2018-04-02T06:41:41.468Z,13.87
2018-04-02T06:44:09.092Z,14.93
2018-04-02T06:46:37.186Z,14.13
2018-04-02T06:49:04.829Z,14.40
2018-04-02T06:51:35.024Z,14.40
2018-04-02T06:54:03.745Z,14.07
2018-04-02T06:56:31.747Z,12.77
2018-04-02T06:58:59.601Z,13.60
2018-04-02T07:01:27.357Z,10.63
2018-04-02T07:03:55.165Z,13.27
2018-04-02T07:06:23.586Z,12.40
2018-04-02T07:08:51.224Z,10.20
2018-04-02T07:11:19.486Z,10.50
2018-04-02T07:13:47.716Z,11.10
2018-04-02T07:16:15.563Z,14.65
2018-04-02T07:18:43.236Z,12.00
2018-04-02T07:21:10.850Z,10.50
2018-04-02T07:23:38.542Z,13.43
2018-04-02T07:26:06.148Z,9.55
2018-04-02T07:28:33.799Z,7.93
2018-04-02T07:31:01.429Z,9.03
2018-04-02T07:33:29.444Z,8.73
2018-04-02T07:35:57.266Z,12.73
2018-04-02T07:38:24.887Z,8.25
2018-04-02T07:40:52.557Z,11.03
2018-04-02T07:43:22.231Z,12.03
2018-04-02T07:45:49.880Z,6.40
2018-04-02T07:48:18.315Z,5.50
2018-04-02T07:50:45.928Z,5.43
2018-04-02T07:53:13.848Z,4.68
2018-04-02T07:55:41.669Z,3.50
2018-04-02T07:58:09.372Z,5.13
2018-04-02T08:00:37.437Z,4.60
2018-04-02T08:03:05.064Z,4.85
2018-04-02T08:05:32.687Z,6.50
2018-04-02T08:08:01.817Z,7.05
2018-04-02T08:10:29.809Z,4.03
2018-04-02T08:12:57.795Z,5.20
2018-04-02T08:15:25.824Z,3.80
2018-04-02T08:17:53.794Z,3.75
2018-04-02T08:20:22.419Z,4.30
2018-04-02T08:22:50.036Z,4.30
2018-04-02T08:25:17.746Z,4.30
2018-04-02T08:27:45.369Z,4.10
2018-04-02T08:30:13.465Z,3.60
2018-04-02T08:32:41.151Z,4.17
2018-04-02T08:35:08.768Z,5.97
2018-04-02T08:37:36.413Z,3.80
2018-04-02T08:40:04.641Z,3.90
2018-04-02T08:42:32.493Z,5.00
2018-04-02T08:45:00.106Z,4.17
2018-04-02T08:47:27.757Z,4.10
2018-04-02T08:49:56.179Z,6.10
2018-04-02T08:52:23.833Z,7.30
2018-04-02T08:54:51.450Z,9.40
2018-04-02T08:57:19.093Z,4.93
2018-04-02T08:59:47.301Z,3.93
2018-04-02T09:02:14.945Z,4.00
2018-04-02T09:04:42.560Z,4.80
2018-04-02T09:07:10.398Z,3.90
2018-04-02T09:09:38.050Z,4.90
2018-04-02T09:12:05.700Z,4.80
2018-04-02T09:14:33.348Z,4.33
2018-04-02T09:17:01.726Z,4.30
2018-04-02T09:19:30.109Z,3.90
2018-04-02T09:21:57.765Z,6.10
2018-04-02T09:24:25.390Z,3.97
2018-04-02T09:26:53.817Z,4.43
2018-04-02T09:29:21.432Z,4.13
2018-04-02T09:31:49.277Z,5.25
2018-04-02T09:34:16.961Z,7.80
2018-04-02T09:36:44.605Z,4.30
2018-04-02T09:39:12.219Z,4.70
2018-04-02T09:41:39.835Z,5.53
2018-04-02T09:44:07.694Z,4.40
2018-04-02T09:46:35.305Z,4.57
2018-04-02T09:49:03.385Z,5.80
2018-04-02T09:51:31.625Z,6.57
2018-04-02T09:53:59.864Z,4.12
2018-04-02T09:56:27.524Z,4.80
2018-04-02T09:58:55.180Z,4.03
2018-04-02T10:01:22.801Z,3.35
2018-04-02T10:03:55.277Z,4.93
2018-04-02T10:06:23.607Z,6.25
2018-04-02T10:08:51.262Z,5.70
2018-04-02T10:11:18.873Z,4.50
2018-04-02T10:13:46.567Z,6.03
2018-04-02T10:16:14.185Z,6.27
2018-04-02T10:18:41.889Z,6.47
2018-04-02T10:21:09.581Z,5.20
2018-04-02T10:23:37.193Z,4.43
2018-04-02T10:26:04.810Z,4.90
2018-04-02T10:28:34.269Z,4.47
2018-04-02T10:31:01.965Z,4.72
2018-04-02T10:33:29.576Z,4.93
2018-04-02T10:35:57.238Z,4.63
2018-04-02T10:38:24.844Z,5.90
2018-04-02T10:40:52.485Z,4.73
2018-04-02T10:43:20.188Z,4.70
2018-04-02T10:45:47.844Z,4.67
2018-04-02T10:48:16.221Z,4.35
2018-04-02T10:50:44.594Z,5.53
2018-04-02T10:53:13.009Z,6.00
2018-04-02T10:55:41.389Z,5.57
2018-04-02T10:58:09.692Z,7.90
2018-04-02T11:00:37.309Z,6.20
2018-04-02T11:03:04.960Z,7.35
2018-04-02T11:05:32.573Z,5.10
2018-04-02T11:08:00.223Z,5.30
2018-04-02T11:10:27.883Z,4.90
2018-04-02T11:12:55.497Z,5.17
2018-04-02T11:15:23.145Z,7.23
2018-04-02T11:17:51.553Z,5.40
2018-04-02T11:20:19.190Z,5.55
2018-04-02T11:22:47.018Z,5.30
2018-04-02T11:25:15.193Z,5.10
2018-04-02T11:27:42.883Z,3.87
2018-04-02T11:30:11.260Z,5.97
2018-04-02T11:32:39.672Z,5.32
2018-04-02T11:35:07.369Z,6.27
2018-04-02T11:37:35.017Z,5.50
2018-04-02T11:40:02.885Z,4.93
2018-04-02T11:42:30.542Z,6.50
2018-04-02T11:44:58.626Z,10.33
2018-04-02T11:47:26.238Z,5.77
2018-04-02T11:49:54.132Z,5.40
2018-04-02T11:52:21.758Z,6.15
2018-04-02T11:54:49.408Z,5.37
2018-04-02T11:57:17.105Z,4.72
2018-04-02T11:59:44.749Z,5.80
2018-04-02T12:02:12.384Z,7.47
2018-04-02T12:04:40.029Z,5.20
2018-04-02T12:07:07.688Z,5.28
2018-04-02T12:09:35.404Z,5.63
2018-04-02T12:12:03.188Z,5.47
2018-04-02T12:14:30.845Z,5.83
2018-04-02T12:16:58.452Z,4.50
2018-04-02T12:19:26.865Z,6.57
2018-04-02T12:21:54.590Z,5.30
2018-04-02T12:24:22.969Z,3.83
2018-04-02T12:26:51.388Z,6.80
2018-04-02T12:29:19.232Z,4.83
2018-04-02T12:31:46.885Z,4.82
2018-04-02T12:34:14.509Z,5.47
2018-04-02T12:36:42.173Z,5.55
2018-04-02T12:39:09.831Z,6.07
2018-04-02T12:41:37.483Z,7.95
2018-04-02T12:44:05.088Z,8.32
2018-04-02T12:46:32.930Z,5.90
2018-04-02T12:49:00.543Z,6.27
2018-04-02T12:51:28.205Z,5.78
2018-04-02T12:53:56.153Z,8.17
2018-04-02T12:56:23.776Z,9.07
2018-04-02T12:58:52.165Z,6.80
2018-04-02T13:01:20.890Z,7.57
2018-04-02T13:03:49.134Z,7.87
2018-04-02T13:06:16.750Z,6.87
2018-04-02T13:08:44.574Z,7.67
2018-04-02T13:11:12.266Z,8.10
2018-04-02T13:13:39.929Z,7.20
2018-04-02T13:16:07.585Z,7.47
2018-04-02T13:18:35.208Z,7.85
2018-04-02T13:21:02.856Z,8.60
2018-04-02T13:23:30.517Z,9.27
2018-04-02T13:25:58.166Z,8.10
2018-04-02T13:28:26.586Z,8.77
2018-04-02T13:30:54.224Z,7.90
2018-04-02T13:33:22.005Z,8.98
2018-04-02T13:35:49.777Z,10.07
2018-04-02T13:38:17.446Z,8.23
2018-04-02T13:40:45.217Z,8.00
2018-04-02T13:43:12.873Z,8.70
2018-04-02T13:45:41.868Z,9.40
2018-04-02T13:48:10.469Z,9.00
2018-04-02T13:50:38.196Z,7.63
2018-04-02T13:53:05.834Z,8.75
2018-04-02T13:55:33.634Z,7.47
2018-04-02T13:58:01.250Z,8.83
2018-04-02T14:00:31.361Z,9.93
2018-04-02T14:02:58.973Z,7.63
2018-04-02T14:05:27.997Z,7.85
2018-04-02T14:07:55.610Z,7.90
2018-04-02T14:10:23.287Z,7.37
2018-04-02T14:12:50.905Z,7.57
2018-04-02T14:15:18.589Z,6.23
2018-04-02T14:17:46.437Z,7.30
2018-04-02T14:20:14.401Z,6.30
2018-04-02T14:22:42.068Z,6.53
2018-04-02T14:25:09.684Z,6.25
2018-04-02T14:27:38.120Z,6.40
2018-04-02T14:30:06.246Z,7.50
2018-04-02T14:32:35.999Z,7.10
2018-04-02T14:35:06.121Z,7.83
2018-04-02T14:37:35.393Z,8.40
2018-04-02T14:40:03.054Z,8.37
2018-04-02T14:42:30.677Z,7.65
2018-04-02T14:44:58.331Z,6.85
2018-04-02T14:47:30.015Z,6.75
2018-04-02T14:49:57.728Z,7.17
2018-04-02T14:52:25.887Z,7.70
2018-04-02T14:54:55.514Z,6.97
2018-04-02T14:57:26.091Z,6.80
2018-04-02T14:59:54.789Z,7.50
2018-04-02T15:02:23.588Z,7.68
2018-04-02T15:04:51.473Z,6.87
2018-04-02T15:07:19.089Z,6.83
2018-04-02T15:09:47.616Z,11.70
2018-04-02T15:12:16.030Z,6.03
2018-04-02T15:14:45.016Z,5.50
2018-04-02T15:17:13.992Z,5.10
2018-04-02T15:19:42.516Z,7.03
2018-04-02T15:22:10.462Z,6.20
2018-04-02T15:24:39.016Z,5.73
2018-04-02T15:27:06.812Z,6.43
2018-04-02T15:29:35.306Z,5.23
2018-04-02T15:32:02.961Z,5.73
2018-04-02T15:34:30.639Z,6.50
2018-04-02T15:36:58.302Z,6.73
2018-04-02T15:39:25.975Z,7.00
2018-04-02T15:41:53.586Z,6.70
2018-04-02T15:44:21.294Z,6.43
2018-04-02T15:46:48.939Z,7.53
2018-04-02T15:49:16.612Z,7.33
2018-04-02T15:51:44.238Z,6.57
2018-04-02T15:54:12.155Z,6.60
2018-04-02T15:56:42.370Z,7.23
2018-04-02T15:59:10.034Z,7.33
2018-04-02T16:01:37.689Z,6.30
2018-04-02T16:04:06.024Z,6.57
2018-04-02T16:06:33.825Z,6.00
2018-04-02T16:09:01.527Z,6.63
2018-04-02T16:11:29.944Z,7.00
2018-04-02T16:13:57.610Z,7.45
2018-04-02T16:16:25.237Z,6.90
2018-04-02T16:18:54.438Z,6.97
2018-04-02T16:21:22.161Z,7.87
2018-04-02T16:23:49.781Z,7.62
2018-04-02T16:26:17.433Z,6.50
2018-04-02T16:28:46.001Z,6.20
2018-04-02T16:31:15.062Z,6.10
2018-04-02T16:33:43.316Z,6.50
2018-04-02T16:36:10.971Z,7.53
2018-04-02T16:38:39.985Z,6.95
2018-04-02T16:41:07.621Z,6.53
2018-04-02T16:43:35.237Z,6.90
2018-04-02T16:46:03.895Z,6.47
2018-04-02T16:48:31.583Z,6.80
2018-04-02T16:50:59.370Z,7.00
2018-04-02T16:53:27.017Z,7.33
2018-04-02T16:55:54.678Z,7.90
2018-04-02T16:58:22.291Z,7.00
2018-04-02T17:00:49.942Z,7.53
2018-04-02T17:03:17.620Z,7.47
2018-04-02T17:05:45.269Z,8.25
2018-04-02T17:08:12.921Z,7.60
2018-04-02T17:10:40.900Z,7.30
2018-04-02T17:13:08.847Z,8.50
2018-04-02T17:15:36.461Z,7.80
2018-04-02T17:18:06.197Z,7.50
2018-04-02T17:20:33.882Z,8.77
2018-04-02T17:23:01.578Z,9.57
2018-04-02T17:25:29.249Z,7.75
2018-04-02T17:27:56.913Z,7.10
2018-04-02T17:30:24.553Z,7.75
2018-04-02T17:32:52.981Z,8.97
2018-04-02T17:35:23.205Z,9.37
2018-04-02T17:37:50.892Z,8.73
2018-04-02T17:40:20.272Z,11.10
2018-04-02T17:42:48.509Z,9.15
2018-04-02T17:45:16.170Z,10.63
2018-04-02T17:47:44.552Z,10.40
2018-04-02T17:50:12.933Z,12.20
2018-04-02T17:52:40.584Z,11.65
2018-04-02T17:55:08.218Z,31.77
2018-04-02T17:57:35.873Z,10.90
2018-04-02T18:00:03.712Z,11.40
2018-04-02T18:02:31.790Z,11.60
2018-04-02T18:05:00.301Z,10.37
2018-04-02T18:07:28.147Z,10.07
2018-04-02T18:11:40.354Z,11.90
2018-04-02T18:14:07.977Z,10.20
2018-04-02T18:16:35.664Z,10.20
2018-04-02T18:19:03.329Z,9.73
2018-04-02T18:21:31.505Z,11.18
2018-04-02T18:23:59.489Z,11.85
2018-04-02T18:26:27.637Z,14.63
2018-04-02T18:28:55.264Z,13.48
2018-04-02T18:31:22.914Z,12.17
2018-04-02T18:33:50.594Z,16.80
2018-04-02T18:36:18.214Z,14.87
2018-04-02T18:38:45.893Z,14.80
2018-04-02T18:41:13.510Z,15.70
2018-04-02T18:43:41.869Z,18.00
2018-04-02T18:46:09.554Z,15.70
2018-04-02T18:48:37.173Z,14.20
2018-04-02T18:51:04.829Z,15.67
2018-04-02T18:53:32.458Z,14.67
2018-04-02T18:56:00.276Z,14.70
2018-04-02T18:58:27.908Z,17.67
2018-04-02T19:00:55.566Z,14.93
2018-04-02T19:03:23.888Z,16.40
2018-04-02T19:05:51.540Z,18.37
2018-04-02T19:08:19.505Z,18.33
2018-04-02T19:10:47.157Z,17.80
2018-04-02T19:13:14.965Z,17.20
2018-04-02T19:15:42.721Z,17.37
2018-04-02T19:18:10.369Z,16.98
2018-04-02T19:20:37.989Z,17.83
2018-04-02T19:23:05.673Z,17.35
2018-04-02T19:25:33.320Z,17.02
2018-04-02T19:28:01.172Z,15.88
2018-04-02T19:30:28.801Z,16.92
2018-04-02T19:32:56.424Z,19.73
2018-04-02T19:35:24.092Z,18.23
2018-04-02T19:37:51.759Z,18.50
2018-04-02T19:40:19.613Z,19.93
2018-04-02T19:42:47.283Z,19.47
2018-04-02T19:45:14.897Z,21.40
2018-04-02T19:47:42.602Z,21.25
2018-04-02T19:50:10.257Z,20.20
2018-04-02T19:52:37.957Z,24.02
2018-04-02T19:55:06.506Z,20.40
2018-04-02T19:57:34.891Z,21.55
2018-04-02T20:00:02.514Z,19.07
2018-04-02T20:02:30.181Z,21.40
2018-04-02T20:04:57.862Z,18.57
2018-04-02T20:07:25.497Z,17.60
2018-04-02T20:09:54.044Z,19.37
2018-04-02T20:12:21.681Z,17.37
2018-04-02T20:14:49.329Z,18.50
2018-04-02T20:17:16.941Z,17.17
2018-04-02T20:19:44.601Z,19.13
2018-04-02T20:22:12.269Z,21.13
2018-04-02T20:24:39.928Z,21.07
2018-04-02T20:27:07.562Z,19.17
2018-04-02T20:29:35.226Z,20.20
2018-04-02T20:32:03.638Z,21.30
2018-04-02T20:34:31.410Z,19.87
2018-04-02T20:36:59.076Z,19.30
2018-04-02T20:39:26.749Z,21.12
2018-04-02T20:41:54.389Z,19.37
2018-04-02T20:44:21.997Z,17.77
2018-04-02T20:46:49.654Z,20.93
2018-04-02T20:49:17.369Z,20.23
2018-04-02T20:51:45.021Z,19.83
2018-04-02T20:54:12.862Z,21.30
2018-04-02T20:56:40.532Z,21.55
2018-04-02T20:59:08.158Z,20.23
2018-04-02T21:01:35.825Z,21.77
2018-04-02T21:04:04.211Z,22.97
2018-04-02T21:06:32.621Z,26.40
2018-04-02T21:09:00.252Z,23.30
2018-04-02T21:11:27.958Z,21.70
2018-04-02T21:13:56.245Z,23.10
2018-04-02T21:16:24.086Z,23.53
2018-04-02T21:18:51.763Z,22.47
2018-04-02T21:21:19.517Z,24.80
2018-04-02T21:23:47.129Z,22.93
2018-04-02T21:26:14.741Z,23.50
2018-04-02T21:28:42.429Z,24.80
2018-04-02T21:31:10.085Z,26.48
2018-04-02T21:33:37.937Z,24.25
2018-04-02T21:36:05.591Z,28.95
2018-04-02T21:38:33.253Z,31.52
2018-04-02T21:41:00.922Z,25.12
2018-04-02T21:43:28.581Z,24.17
2018-04-02T21:45:56.242Z,30.05
2018-04-02T21:48:23.905Z,28.85
2018-04-02T21:50:51.555Z,28.77
2018-04-02T21:53:19.390Z,28.63
2018-04-02T21:55:47.041Z,31.67
2018-04-02T21:58:14.705Z,33.88
2018-04-02T22:00:42.313Z,27.53
2018-04-02T22:03:11.469Z,29.17
2018-04-02T22:05:39.165Z,30.50
2018-04-02T22:08:10.054Z,30.40
2018-04-02T22:10:37.743Z,27.17
2018-04-02T22:13:05.384Z,30.63
2018-04-02T22:15:33.746Z,30.60
2018-04-02T22:18:01.401Z,31.93
2018-04-02T22:20:29.067Z,28.87
2018-04-02T22:22:56.685Z,32.70
2018-04-02T22:25:25.844Z,36.05
2018-04-02T22:27:53.464Z,31.83
2018-04-02T22:30:21.117Z,30.57
2018-04-02T22:32:48.731Z,34.08
2018-04-02T22:35:16.393Z,32.10
2018-04-02T22:37:44.396Z,30.37
2018-04-02T22:40:12.076Z,28.38
2018-04-02T22:42:41.598Z,29.27
2018-04-02T22:45:09.261Z,35.45
2018-04-02T22:47:36.904Z,30.73
2018-04-02T22:50:05.285Z,29.60
2018-04-02T22:52:33.532Z,32.80
2018-04-02T22:55:01.753Z,32.53
2018-04-02T22:57:29.453Z,28.90
2018-04-02T22:59:57.752Z,33.80
2018-04-02T23:02:25.414Z,35.60
2018-04-02T23:04:53.077Z,35.53
2018-04-02T23:07:21.502Z,32.73
2018-04-02T23:09:49.149Z,31.25
2018-04-02T23:12:17.004Z,29.80
2018-04-02T23:14:45.231Z,30.23
2018-04-02T23:17:12.843Z,29.98
2018-04-02T23:19:40.501Z,32.70
2018-04-02T23:22:08.152Z,30.77
2018-04-02T23:24:35.848Z,35.00
2018-04-02T23:27:03.519Z,29.42
2018-04-02T23:29:31.293Z,29.83
2018-04-02T23:31:58.933Z,30.90
2018-04-02T23:34:26.582Z,29.27
2018-04-02T23:36:54.253Z,31.92
2018-04-02T23:39:21.952Z,31.87
2018-04-02T23:41:49.565Z,35.08
2018-04-02T23:44:17.180Z,30.00
2018-04-02T23:46:44.832Z,30.45
2018-04-02T23:49:12.501Z,36.50
2018-04-02T23:51:40.912Z,33.75
2018-04-02T23:54:09.313Z,32.70
2018-04-02T23:56:36.944Z,38.57
2018-04-02T23:59:04.560Z,36.97
